createdAt,value
2022-12-08T00:01:26.120Z,8.77
2022-12-08T00:03:53.275Z,7.78
2022-12-08T00:06:43.251Z,10.45
2022-12-08T00:09:23.003Z,6.45
2022-12-08T00:12:16.497Z,7.90
2022-12-08T00:14:45.878Z,10.20
2022-12-08T00:17:14.966Z,8.48
2022-12-08T00:19:42.726Z,10.10
2022-12-08T00:22:11.168Z,7.80
2022-12-08T00:24:40.174Z,9.82
2022-12-08T00:27:09.134Z,8.15
2022-12-08T00:29:35.907Z,6.97
2022-12-08T00:32:02.796Z,6.43
2022-12-08T00:34:30.908Z,5.60
2022-12-08T00:36:57.862Z,7.03
2022-12-08T00:39:24.790Z,6.72
2022-12-08T00:42:10.095Z,5.97
2022-12-08T00:44:36.990Z,7.72
2022-12-08T00:47:04.380Z,5.65
2022-12-08T00:49:31.241Z,5.30
2022-12-08T00:51:57.988Z,5.68
2022-12-08T00:54:24.706Z,4.03
2022-12-08T00:56:52.140Z,4.88
2022-12-08T00:59:19.143Z,4.35
2022-12-08T01:01:47.365Z,5.03
2022-12-08T01:04:16.939Z,5.43
2022-12-08T01:06:44.606Z,3.53
2022-12-08T01:09:12.598Z,5.95
2022-12-08T01:11:39.360Z,5.97
2022-12-08T01:14:06.244Z,4.47
2022-12-08T01:16:35.317Z,3.10
2022-12-08T01:19:02.302Z,3.70
2022-12-08T01:21:29.353Z,4.53
2022-12-08T01:23:59.983Z,4.45
2022-12-08T01:26:26.858Z,6.35
2022-12-08T01:28:53.683Z,6.32
2022-12-08T01:31:22.514Z,5.22
2022-12-08T01:33:50.657Z,5.38
2022-12-08T01:36:25.060Z,6.22
2022-12-08T01:38:53.186Z,5.43
2022-12-08T01:41:23.219Z,4.60
2022-12-08T01:43:58.654Z,5.22
2022-12-08T01:46:26.633Z,5.18
2022-12-08T01:49:13.600Z,5.75
2022-12-08T01:52:09.070Z,3.70
2022-12-08T01:55:08.202Z,2.80
2022-12-08T01:57:43.013Z,3.97
2022-12-08T02:00:14.412Z,5.88
2022-12-08T02:03:04.796Z,4.60
2022-12-08T02:05:34.950Z,3.22
2022-12-08T02:08:06.616Z,4.28
2022-12-08T02:10:36.396Z,3.75
2022-12-08T02:13:05.221Z,5.00
2022-12-08T02:16:04.773Z,4.25
2022-12-08T02:19:28.948Z,4.10
2022-12-08T02:22:15.719Z,4.13
2022-12-08T02:24:54.722Z,2.40
2022-12-08T02:27:46.246Z,6.20
2022-12-08T02:30:21.999Z,4.40
2022-12-08T02:33:41.738Z,3.97
2022-12-08T02:36:18.236Z,2.65
2022-12-08T02:38:52.561Z,5.05
2022-12-08T02:41:52.126Z,2.60
2022-12-08T02:44:37.505Z,5.28
2022-12-08T02:47:15.741Z,5.28
2022-12-08T02:49:42.570Z,4.22
2022-12-08T02:52:12.332Z,2.72
2022-12-08T02:54:42.075Z,3.70
2022-12-08T02:57:14.886Z,3.08
2022-12-08T03:00:06.832Z,2.80
2022-12-08T03:02:58.921Z,3.78
2022-12-08T03:05:37.840Z,4.55
2022-12-08T03:08:22.715Z,3.22
2022-12-08T03:11:11.569Z,5.38
2022-12-08T03:13:46.336Z,5.35
2022-12-08T03:16:17.070Z,3.88
2022-12-08T03:18:49.478Z,4.25
2022-12-08T03:21:18.077Z,4.28
2022-12-08T03:23:47.966Z,3.10
2022-12-08T03:26:25.089Z,6.85
2022-12-08T03:28:52.141Z,4.88
2022-12-08T03:31:21.159Z,3.95
2022-12-08T03:33:51.981Z,5.00
2022-12-08T03:36:19.514Z,3.80
2022-12-08T03:38:49.915Z,4.53
2022-12-08T03:41:20.208Z,3.58
2022-12-08T03:43:54.109Z,4.05
2022-12-08T03:48:49.351Z,6.03
2022-12-08T03:51:17.004Z,3.33
2022-12-08T03:53:43.943Z,4.38
2022-12-08T03:56:25.150Z,4.68
2022-12-08T03:58:52.489Z,5.75
2022-12-08T04:01:19.948Z,5.03
2022-12-08T04:03:46.755Z,5.03
2022-12-08T04:06:14.071Z,7.50
2022-12-08T04:08:40.971Z,6.63
2022-12-08T04:11:08.061Z,4.82
2022-12-08T04:13:35.551Z,6.53
2022-12-08T04:16:02.788Z,8.95
2022-12-08T04:18:29.840Z,5.80
2022-12-08T04:20:56.490Z,4.82
2022-12-08T04:23:23.482Z,6.88
2022-12-08T04:25:52.174Z,6.15
2022-12-08T04:28:19.361Z,7.05
2022-12-08T04:30:48.790Z,7.63
2022-12-08T04:33:16.213Z,7.18
2022-12-08T04:35:43.238Z,5.78
2022-12-08T04:38:10.085Z,4.93
2022-12-08T04:40:36.801Z,6.30
2022-12-08T04:43:03.611Z,3.58
2022-12-08T04:45:31.243Z,7.32
2022-12-08T04:48:01.868Z,4.55
2022-12-08T04:50:28.512Z,6.57
2022-12-08T04:52:55.264Z,3.35
2022-12-08T04:55:22.030Z,6.85
2022-12-08T04:57:48.689Z,5.03
2022-12-08T05:00:16.113Z,4.45
2022-12-08T05:02:42.938Z,4.57
2022-12-08T05:05:10.576Z,6.35
2022-12-08T05:07:37.752Z,4.65
2022-12-08T05:10:05.392Z,4.20
2022-12-08T05:12:32.266Z,3.72
2022-12-08T05:14:59.009Z,4.10
2022-12-08T05:17:25.618Z,5.10
2022-12-08T05:19:52.384Z,4.07
2022-12-08T05:22:19.080Z,3.97
2022-12-08T05:24:47.680Z,4.40
2022-12-08T05:27:14.875Z,5.45
2022-12-08T05:29:42.105Z,3.50
2022-12-08T05:32:08.894Z,5.03
2022-12-08T05:34:35.743Z,5.53
2022-12-08T05:37:02.408Z,5.32
2022-12-08T05:39:29.162Z,5.45
2022-12-08T05:41:55.832Z,4.10
2022-12-08T05:44:22.672Z,8.32
2022-12-08T05:46:49.502Z,5.10
2022-12-08T05:49:16.347Z,4.35
2022-12-08T05:51:43.118Z,4.43
2022-12-08T05:54:10.182Z,4.47
2022-12-08T05:56:36.868Z,5.78
2022-12-08T05:59:06.961Z,7.57
2022-12-08T06:01:34.171Z,6.20
2022-12-08T06:04:02.650Z,7.35
2022-12-08T06:06:30.765Z,3.25
2022-12-08T06:08:57.469Z,5.43
2022-12-08T06:11:29.642Z,4.35
2022-12-08T06:16:24.690Z,5.93
2022-12-08T06:18:52.133Z,4.18
2022-12-08T06:21:19.775Z,3.75
2022-12-08T06:23:53.855Z,6.65
2022-12-08T06:26:21.392Z,4.47
2022-12-08T06:28:49.293Z,5.43
2022-12-08T06:31:19.299Z,7.65
2022-12-08T06:33:47.093Z,6.18
2022-12-08T06:36:15.356Z,5.53
2022-12-08T06:38:43.883Z,11.00
2022-12-08T06:41:12.027Z,6.20
2022-12-08T06:43:39.397Z,8.82
2022-12-08T06:46:08.506Z,7.47
2022-12-08T06:48:35.369Z,7.45
2022-12-08T06:51:20.201Z,6.53
2022-12-08T06:56:15.716Z,8.48
2022-12-08T06:58:46.076Z,9.27
2022-12-08T07:01:17.313Z,6.60
2022-12-08T07:03:44.479Z,6.65
2022-12-08T07:06:16.469Z,7.22
2022-12-08T07:08:43.511Z,5.85
2022-12-08T07:11:14.126Z,7.45
2022-12-08T07:13:43.445Z,7.00
2022-12-08T07:16:11.850Z,6.47
2022-12-08T07:18:39.051Z,8.43
2022-12-08T07:21:11.015Z,9.05
2022-12-08T07:23:38.396Z,9.55
2022-12-08T07:26:08.291Z,7.40
2022-12-08T07:28:36.940Z,5.97
2022-12-08T07:31:04.641Z,7.68
2022-12-08T07:33:32.849Z,9.15
2022-12-08T07:36:05.002Z,6.65
2022-12-08T07:40:58.751Z,9.98
2022-12-08T07:43:25.586Z,6.45
2022-12-08T07:45:52.416Z,8.82
2022-12-08T07:48:19.639Z,5.80
2022-12-08T07:50:47.372Z,11.00
2022-12-08T07:53:14.397Z,8.88
2022-12-08T07:55:42.754Z,8.05
2022-12-08T07:58:10.004Z,10.40
2022-12-08T08:00:36.916Z,9.80
2022-12-08T08:03:04.004Z,8.10
2022-12-08T08:05:30.767Z,10.18
2022-12-08T08:07:57.577Z,7.47
2022-12-08T08:10:24.470Z,9.48
2022-12-08T08:12:51.142Z,8.55
2022-12-08T08:15:19.246Z,7.88
2022-12-08T08:17:52.304Z,8.75
2022-12-08T08:20:19.913Z,9.27
2022-12-08T08:22:47.700Z,7.65
2022-12-08T08:25:15.665Z,11.57
2022-12-08T08:27:42.931Z,10.63
2022-12-08T08:30:15.358Z,12.52
2022-12-08T08:32:46.877Z,8.82
2022-12-08T08:35:13.581Z,9.68
2022-12-08T08:37:43.100Z,10.18
2022-12-08T08:40:13.839Z,8.00
2022-12-08T08:42:40.668Z,10.90
2022-12-08T08:45:08.074Z,8.43
2022-12-08T08:47:34.835Z,8.90
2022-12-08T08:50:02.117Z,8.65
2022-12-08T08:52:29.218Z,11.88
2022-12-08T08:54:55.894Z,9.88
2022-12-08T08:57:25.762Z,8.95
2022-12-08T08:59:53.230Z,8.98
2022-12-08T09:02:20.559Z,11.63
2022-12-08T09:04:47.453Z,10.52
2022-12-08T09:07:14.750Z,12.48
2022-12-08T09:09:41.806Z,10.23
2022-12-08T09:12:09.130Z,10.10
2022-12-08T09:14:36.007Z,10.82
2022-12-08T09:17:02.854Z,11.32
2022-12-08T09:19:29.538Z,9.00
2022-12-08T09:21:56.217Z,10.18
2022-12-08T09:24:23.232Z,8.85
2022-12-08T09:26:50.118Z,13.23
2022-12-08T09:29:17.704Z,9.43
2022-12-08T09:31:44.647Z,7.65
2022-12-08T09:34:12.722Z,8.65
2022-12-08T09:36:40.379Z,9.60
2022-12-08T09:39:07.216Z,8.48
2022-12-08T09:41:47.679Z,11.65
2022-12-08T09:44:35.310Z,10.65
2022-12-08T09:47:05.627Z,9.30
2022-12-08T09:49:47.649Z,9.63
2022-12-08T09:52:38.071Z,9.15
2022-12-08T09:55:14.538Z,7.70
2022-12-08T09:57:41.382Z,11.63
2022-12-08T10:00:14.516Z,10.45
2022-12-08T10:02:41.705Z,11.05
2022-12-08T10:05:14.969Z,8.82
2022-12-08T10:07:44.988Z,9.15
2022-12-08T10:10:18.016Z,8.68
2022-12-08T10:12:54.038Z,11.45
2022-12-08T10:15:59.665Z,9.27
2022-12-08T10:18:32.496Z,10.27
2022-12-08T10:21:16.149Z,12.65
2022-12-08T10:23:47.740Z,10.63
2022-12-08T10:26:18.041Z,9.82
2022-12-08T10:28:45.843Z,10.57
2022-12-08T10:31:24.084Z,13.20
2022-12-08T10:33:58.281Z,8.63
2022-12-08T10:36:45.293Z,8.98
2022-12-08T10:39:29.631Z,10.40
2022-12-08T10:42:14.759Z,9.38
2022-12-08T10:45:04.466Z,9.80
2022-12-08T10:47:37.007Z,10.13
2022-12-08T10:50:13.127Z,9.15
2022-12-08T10:52:40.498Z,9.27
2022-12-08T10:55:19.936Z,9.93
2022-12-08T10:57:49.056Z,8.82
2022-12-08T11:00:26.969Z,11.75
2022-12-08T11:02:59.776Z,9.57
2022-12-08T11:05:31.580Z,9.48
2022-12-08T11:07:58.914Z,12.40
2022-12-08T11:10:44.234Z,9.43
2022-12-08T11:13:26.440Z,9.20
2022-12-08T11:15:55.253Z,10.38
2022-12-08T11:18:29.498Z,9.52
2022-12-08T11:20:59.406Z,9.85
2022-12-08T11:23:30.099Z,7.75
2022-12-08T11:26:01.399Z,10.57
2022-12-08T11:28:28.902Z,7.93
2022-12-08T11:31:25.174Z,8.02
2022-12-08T11:33:52.880Z,9.38
2022-12-08T11:36:23.793Z,9.68
2022-12-08T11:38:55.561Z,9.65
2022-12-08T11:41:26.478Z,11.90
2022-12-08T11:44:02.328Z,13.35
2022-12-08T11:46:42.513Z,11.55
2022-12-08T11:49:14.506Z,10.50
2022-12-08T11:51:53.009Z,9.48
2022-12-08T11:54:25.130Z,8.82
2022-12-08T11:59:46.128Z,9.95
2022-12-08T12:02:36.127Z,11.20
2022-12-08T12:05:39.935Z,8.50
2022-12-08T12:08:56.582Z,10.93
2022-12-08T12:12:06.257Z,8.48
2022-12-08T12:14:35.873Z,8.43
2022-12-08T12:17:06.248Z,8.02
2022-12-08T12:19:38.464Z,8.63
2022-12-08T12:22:24.127Z,8.02
2022-12-08T12:24:52.424Z,9.27
2022-12-08T12:27:27.888Z,9.35
2022-12-08T12:29:58.974Z,8.70
2022-12-08T12:32:27.549Z,10.40
2022-12-08T12:35:00.387Z,9.48
2022-12-08T12:37:39.821Z,8.85
2022-12-08T12:40:17.546Z,11.38
2022-12-08T12:42:50.833Z,8.75
2022-12-08T12:45:17.557Z,10.15
2022-12-08T12:47:55.563Z,9.73
2022-12-08T12:50:32.388Z,8.02
2022-12-08T12:53:26.273Z,10.40
2022-12-08T12:56:03.995Z,8.95
2022-12-08T12:58:30.823Z,9.60
2022-12-08T13:01:13.021Z,8.68
2022-12-08T13:03:45.734Z,10.00
2022-12-08T13:06:15.076Z,9.30
2022-12-08T13:08:54.192Z,8.80
2022-12-08T13:11:21.940Z,8.57
2022-12-08T13:14:01.487Z,9.43
2022-12-08T13:16:32.457Z,9.20
2022-12-08T13:19:04.236Z,8.80
2022-12-08T13:21:37.627Z,8.55
2022-12-08T13:24:10.316Z,9.55
2022-12-08T13:26:51.235Z,8.60
2022-12-08T13:29:26.920Z,9.40
2022-12-08T13:31:59.573Z,7.97
2022-12-08T13:34:45.364Z,8.70
2022-12-08T13:37:12.131Z,7.85
2022-12-08T13:39:51.595Z,8.25
2022-12-08T13:42:38.062Z,10.07
2022-12-08T13:48:55.931Z,7.90
2022-12-08T13:55:01.902Z,8.70
2022-12-08T13:57:14.135Z,8.90
2022-12-08T13:59:45.583Z,11.80
2022-12-08T14:02:15.519Z,10.20
2022-12-08T14:05:16.930Z,8.73
2022-12-08T14:07:34.330Z,8.85
2022-12-08T14:10:03.635Z,10.35
2022-12-08T14:12:31.463Z,7.25
2022-12-08T14:15:03.788Z,8.35
2022-12-08T14:17:31.166Z,10.40
2022-12-08T14:20:14.041Z,9.35
2022-12-08T14:22:41.643Z,8.13
2022-12-08T14:25:15.560Z,8.25
2022-12-08T14:27:43.408Z,9.57
2022-12-08T14:30:13.721Z,12.70
2022-12-08T14:32:47.972Z,11.27
2022-12-08T14:35:29.937Z,9.50
2022-12-08T14:38:00.335Z,11.30
2022-12-08T14:40:38.710Z,12.80
2022-12-08T14:43:13.474Z,12.70
2022-12-08T14:45:43.402Z,10.48
2022-12-08T14:48:23.870Z,10.68
2022-12-08T14:50:59.722Z,9.27
2022-12-08T14:53:41.328Z,11.63
2022-12-08T14:56:27.103Z,10.23
2022-12-08T14:59:08.152Z,10.60
2022-12-08T15:01:36.362Z,11.52
2022-12-08T15:04:13.858Z,11.95
2022-12-08T15:06:57.710Z,12.20
2022-12-08T15:09:39.449Z,14.45
2022-12-08T15:12:12.066Z,11.38
2022-12-08T15:14:53.702Z,11.82
2022-12-08T15:17:45.037Z,12.02
2022-12-08T15:20:41.477Z,13.57
2022-12-08T15:23:32.723Z,13.35
2022-12-08T15:26:00.143Z,15.05
2022-12-08T15:28:30.264Z,14.43
2022-12-08T15:30:58.427Z,12.85
2022-12-08T15:33:26.040Z,15.05
2022-12-08T15:35:53.595Z,11.73
2022-12-08T15:38:26.943Z,13.10
2022-12-08T15:40:54.946Z,13.32
2022-12-08T15:43:22.152Z,13.05
2022-12-08T15:45:58.602Z,15.07
2022-12-08T15:48:29.504Z,13.70
2022-12-08T15:50:56.876Z,10.90
2022-12-08T15:53:23.889Z,12.77
2022-12-08T15:56:25.690Z,11.95
2022-12-08T15:58:55.716Z,12.63
2022-12-08T16:01:23.965Z,11.27
2022-12-08T16:09:34.642Z,14.18
2022-12-08T16:12:20.565Z,14.57
2022-12-08T16:15:48.648Z,15.77
2022-12-08T16:17:34.823Z,17.33
2022-12-08T16:20:03.025Z,16.58
2022-12-08T16:25:20.653Z,17.17
2022-12-08T16:30:37.327Z,21.00
2022-12-08T16:33:04.704Z,17.30
2022-12-08T16:35:31.524Z,16.90
2022-12-08T16:37:58.860Z,17.23
2022-12-08T16:40:26.493Z,20.95
2022-12-08T16:42:54.072Z,19.48
2022-12-08T16:45:23.881Z,20.55
2022-12-08T16:47:54.717Z,19.90
2022-12-08T16:50:34.907Z,20.15
2022-12-08T16:53:07.722Z,19.02
2022-12-08T16:55:34.888Z,17.77
2022-12-08T16:58:02.819Z,20.27
2022-12-08T17:00:31.241Z,20.65
2022-12-08T17:02:58.876Z,22.73
2022-12-08T17:05:26.290Z,18.77
2022-12-08T17:07:54.469Z,18.98
2022-12-08T17:10:25.864Z,14.88
2022-12-08T17:12:53.407Z,17.85
2022-12-08T17:15:22.904Z,14.82
2022-12-08T17:17:50.665Z,12.88
2022-12-08T17:20:23.993Z,10.27
2022-12-08T17:22:53.591Z,13.32
2022-12-08T17:25:20.658Z,23.45
2022-12-08T17:27:47.915Z,15.38
2022-12-08T17:30:15.898Z,16.88
2022-12-08T17:32:43.227Z,15.65
2022-12-08T17:35:11.305Z,11.77
2022-12-08T17:37:38.113Z,13.68
2022-12-08T17:40:05.908Z,9.10
2022-12-08T17:42:33.031Z,11.32
2022-12-08T17:44:59.751Z,18.92
2022-12-08T17:47:27.762Z,24.83
2022-12-08T17:49:56.087Z,18.73
2022-12-08T17:52:23.041Z,27.02
2022-12-08T17:54:49.887Z,21.58
2022-12-08T17:57:16.867Z,41.90
2022-12-08T17:59:43.567Z,28.73
2022-12-08T18:02:12.066Z,16.75
2022-12-08T18:04:38.955Z,18.63
2022-12-08T18:07:05.869Z,31.45
2022-12-08T18:09:33.744Z,15.07
2022-12-08T18:12:00.513Z,18.95
2022-12-08T18:14:27.490Z,18.38
2022-12-08T18:16:54.275Z,23.75
2022-12-08T18:19:20.972Z,34.13
2022-12-08T18:21:47.687Z,31.00
2022-12-08T18:24:22.352Z,41.90
2022-12-08T18:26:51.992Z,18.70
2022-12-08T18:29:19.524Z,34.55
2022-12-08T18:31:46.190Z,15.20
2022-12-08T18:34:12.990Z,41.55
2022-12-08T18:36:39.883Z,26.27
2022-12-08T18:39:10.749Z,20.10
2022-12-08T18:41:37.916Z,19.67
2022-12-08T18:44:04.713Z,27.77
2022-12-08T18:46:31.603Z,14.65
2022-12-08T18:48:59.369Z,18.50
2022-12-08T18:51:26.085Z,28.80
2022-12-08T18:53:52.856Z,63.97
2022-12-08T18:56:32.813Z,14.90
2022-12-08T18:59:03.919Z,23.38
2022-12-08T19:01:34.916Z,21.42
2022-12-08T19:06:52.663Z,17.63
2022-12-08T19:09:19.968Z,19.80
2022-12-08T19:11:47.208Z,23.85
2022-12-08T19:14:14.050Z,16.20
2022-12-08T19:16:40.980Z,17.40
2022-12-08T19:19:08.654Z,11.48
2022-12-08T19:21:35.764Z,9.25
2022-12-08T19:24:02.537Z,23.40
2022-12-08T19:26:29.374Z,31.40
2022-12-08T19:28:57.930Z,12.23
2022-12-08T19:31:24.771Z,25.80
2022-12-08T19:33:51.655Z,12.73
2022-12-08T19:36:21.568Z,11.73
2022-12-08T19:39:07.197Z,13.15
2022-12-08T19:41:54.664Z,11.55
2022-12-08T19:44:46.404Z,8.88
2022-12-08T19:47:13.501Z,11.32
2022-12-08T19:49:40.445Z,11.07
2022-12-08T19:52:07.655Z,27.67
2022-12-08T19:54:34.766Z,19.25
2022-12-08T19:57:01.777Z,20.27
2022-12-08T19:59:30.088Z,16.08
2022-12-08T20:01:59.105Z,13.95
2022-12-08T20:04:27.373Z,14.82
2022-12-08T20:06:55.846Z,17.60
2022-12-08T20:09:24.573Z,9.70
2022-12-08T20:11:54.746Z,13.38
2022-12-08T20:14:22.862Z,20.35
2022-12-08T20:16:50.640Z,12.43
2022-12-08T20:19:18.501Z,22.27
2022-12-08T20:21:45.608Z,25.00
2022-12-08T20:24:12.497Z,18.73
2022-12-08T20:26:39.707Z,12.13
2022-12-08T20:29:06.445Z,16.48
2022-12-08T20:31:33.745Z,20.58
2022-12-08T20:34:01.521Z,39.00
2022-12-08T20:36:28.952Z,25.25
2022-12-08T20:38:56.998Z,36.83
2022-12-08T20:41:23.881Z,30.15
2022-12-08T20:43:51.966Z,30.80
2022-12-08T20:46:20.359Z,31.58
2022-12-08T20:48:48.142Z,55.47
2022-12-08T20:51:19.035Z,35.22
2022-12-08T20:53:47.523Z,16.67
2022-12-08T20:56:19.964Z,34.95
2022-12-08T20:58:47.665Z,36.28
2022-12-08T21:01:16.728Z,19.30
2022-12-08T21:03:44.221Z,13.57
2022-12-08T21:06:11.900Z,20.10
2022-12-08T21:08:39.359Z,20.10
2022-12-08T21:11:07.386Z,38.15
2022-12-08T21:13:36.317Z,20.63
2022-12-08T21:16:03.876Z,11.68
2022-12-08T21:18:34.585Z,22.13
2022-12-08T21:21:06.652Z,41.17
2022-12-08T21:23:34.067Z,37.65
2022-12-08T21:26:01.235Z,29.35
2022-12-08T21:28:28.306Z,21.40
2022-12-08T21:30:55.069Z,45.03
2022-12-08T21:33:21.833Z,45.67
2022-12-08T21:35:48.779Z,34.25
2022-12-08T21:38:15.523Z,26.13
2022-12-08T21:40:42.886Z,30.70
2022-12-08T21:43:09.792Z,32.53
2022-12-08T21:45:36.797Z,36.97
2022-12-08T21:48:10.997Z,29.17
2022-12-08T21:50:38.676Z,37.38
2022-12-08T21:53:05.569Z,12.73
2022-12-08T21:55:32.311Z,38.13
2022-12-08T21:58:01.024Z,21.98
2022-12-08T22:00:28.741Z,21.80
2022-12-08T22:02:55.911Z,21.30
2022-12-08T22:05:22.748Z,41.20
2022-12-08T22:07:49.926Z,64.60
2022-12-08T22:10:17.420Z,61.92
2022-12-08T22:12:44.346Z,30.38
2022-12-08T22:15:11.479Z,39.17
2022-12-08T22:17:40.783Z,27.73
2022-12-08T22:20:10.976Z,66.00
2022-12-08T22:22:38.468Z,30.67
2022-12-08T22:25:06.923Z,67.97
2022-12-08T22:27:34.211Z,49.28
2022-12-08T22:30:01.277Z,32.17
2022-12-08T22:32:28.204Z,43.58
2022-12-08T22:34:54.984Z,30.98
2022-12-08T22:37:22.213Z,47.00
2022-12-08T22:39:49.234Z,52.80
2022-12-08T22:42:16.300Z,24.25
2022-12-08T22:44:42.997Z,51.17
2022-12-08T22:47:09.978Z,41.00
2022-12-08T22:49:37.041Z,45.20
2022-12-08T22:52:04.042Z,22.05
2022-12-08T22:54:30.811Z,95.05
2022-12-08T22:56:57.706Z,23.77
2022-12-08T22:59:24.916Z,60.58
2022-12-08T23:01:53.972Z,36.00
2022-12-08T23:04:20.971Z,36.17
2022-12-08T23:06:48.258Z,68.38
2022-12-08T23:09:15.285Z,25.27
2022-12-08T23:11:42.773Z,46.45
2022-12-08T23:14:09.461Z,20.75
2022-12-08T23:16:36.864Z,20.33
2022-12-08T23:19:04.184Z,56.33
2022-12-08T23:21:31.252Z,29.95
2022-12-08T23:24:01.052Z,34.35
2022-12-08T23:26:30.113Z,59.15
2022-12-08T23:28:57.762Z,56.97
2022-12-08T23:31:25.690Z,34.55
2022-12-08T23:33:53.446Z,40.13
2022-12-08T23:36:21.553Z,27.65
2022-12-08T23:38:49.180Z,26.45
2022-12-08T23:41:16.693Z,25.90
2022-12-08T23:43:45.799Z,41.25
2022-12-08T23:46:14.297Z,36.08
2022-12-08T23:48:41.244Z,30.85
2022-12-08T23:51:08.313Z,19.42
2022-12-08T23:53:35.470Z,38.42
2022-12-08T23:56:05.206Z,44.92
2022-12-08T23:58:32.146Z,33.55
